< < Back
Terminal Aerodrome Forecast


Current Version              Previous Versions:   1  2  3  4  5  6  7  8  9  

Terminal Aerodrome Forecast

349
FTUS42 KTAE 252300
TAFVLD
TAF
KVLD 252339Z 2600/2624 VRB05KT P6SM SKC
     FM260300 19002KT P6SM OVC100
     FM260600 21003KT P6SM OVC050=

Latest METAR

186
SAUS70 KWBC 260600 RRK
MTRVLD
METAR KVLD 260553Z AUTO 00000KT 9SM SCT095 09/09 A2983 RMK AO2 SLP109
T00940089 10122 20094 58018 TSNO


USA.gov is the U.S. government's official web portal to all federal, state and local government web resources and services.